sensor_id;sensor_type;location;lat;lon;timestamp;P1;durP1;ratioP1;P2;durP2;ratioP2
20976;SDS011;10647;51.016;3.720;2023-03-11T00:01:25;18.87;;;6.23;;
20976;SDS011;10647;51.016;3.720;2023-03-11T00:03:55;15.47;;;5.37;;
20976;SDS011;10647;51.016;3.720;2023-03-11T00:06:25;22.03;;;6.17;;
20976;SDS011;10647;51.016;3.720;2023-03-11T00:08:53;22.77;;;5.43;;
20976;SDS011;10647;51.016;3.720;2023-03-11T00:11:21;21.80;;;7.60;;
20976;SDS011;10647;51.016;3.720;2023-03-11T00:13:48;26.20;;;6.80;;
20976;SDS011;10647;51.016;3.720;2023-03-11T00:19:04;20.77;;;6.90;;
20976;SDS011;10647;51.016;3.720;2023-03-11T00:21:31;19.97;;;7.00;;
20976;SDS011;10647;51.016;3.720;2023-03-11T00:23:59;23.17;;;7.10;;
20976;SDS011;10647;51.016;3.720;2023-03-11T00:26:29;22.47;;;7.07;;
20976;SDS011;10647;51.016;3.720;2023-03-11T00:28:56;25.40;;;7.10;;
20976;SDS011;10647;51.016;3.720;2023-03-11T00:31:24;18.13;;;6.60;;
20976;SDS011;10647;51.016;3.720;2023-03-11T00:33:58;18.40;;;6.53;;
20976;SDS011;10647;51.016;3.720;2023-03-11T00:36:27;19.40;;;5.97;;
20976;SDS011;10647;51.016;3.720;2023-03-11T00:38:58;26.97;;;7.03;;
20976;SDS011;10647;51.016;3.720;2023-03-11T00:41:28;20.30;;;6.27;;
20976;SDS011;10647;51.016;3.720;2023-03-11T00:43:56;22.00;;;6.50;;
20976;SDS011;10647;51.016;3.720;2023-03-11T00:46:23;23.77;;;6.07;;
20976;SDS011;10647;51.016;3.720;2023-03-11T00:48:51;22.57;;;6.83;;
20976;SDS011;10647;51.016;3.720;2023-03-11T00:51:19;23.13;;;6.00;;
20976;SDS011;10647;51.016;3.720;2023-03-11T00:53:46;19.57;;;5.97;;
20976;SDS011;10647;51.016;3.720;2023-03-11T00:56:14;19.87;;;6.40;;
20976;SDS011;10647;51.016;3.720;2023-03-11T00:58:42;18.93;;;5.80;;
20976;SDS011;10647;51.016;3.720;2023-03-11T01:01:11;21.13;;;6.13;;
20976;SDS011;10647;51.016;3.720;2023-03-11T01:03:41;21.53;;;6.07;;
20976;SDS011;10647;51.016;3.720;2023-03-11T01:06:09;15.13;;;5.83;;
20976;SDS011;10647;51.016;3.720;2023-03-11T01:08:37;25.53;;;6.33;;
20976;SDS011;10647;51.016;3.720;2023-03-11T01:13:52;21.43;;;6.63;;
20976;SDS011;10647;51.016;3.720;2023-03-11T01:16:21;25.43;;;6.87;;
20976;SDS011;10647;51.016;3.720;2023-03-11T01:18:49;27.40;;;7.00;;
20976;SDS011;10647;51.016;3.720;2023-03-11T01:21:17;33.97;;;6.87;;
20976;SDS011;10647;51.016;3.720;2023-03-11T01:23:44;27.53;;;6.40;;
20976;SDS011;10647;51.016;3.720;2023-03-11T01:26:13;23.03;;;6.17;;
20976;SDS011;10647;51.016;3.720;2023-03-11T01:28:40;20.37;;;6.93;;
20976;SDS011;10647;51.016;3.720;2023-03-11T01:33:44;21.03;;;6.37;;
20976;SDS011;10647;51.016;3.720;2023-03-11T01:36:12;23.97;;;6.40;;
20976;SDS011;10647;51.016;3.720;2023-03-11T01:38:40;15.33;;;5.90;;
20976;SDS011;10647;51.016;3.720;2023-03-11T01:41:07;21.73;;;7.20;;
20976;SDS011;10647;51.016;3.720;2023-03-11T01:49:04;23.10;;;5.77;;
20976;SDS011;10647;51.016;3.720;2023-03-11T01:51:38;31.70;;;6.13;;
20976;SDS011;10647;51.016;3.720;2023-03-11T01:54:32;12.40;;;2.23;;
20976;SDS011;10647;51.016;3.720;2023-03-11T01:57:10;18.87;;;5.23;;
20976;SDS011;10647;51.016;3.720;2023-03-11T01:59:36;14.63;;;4.50;;
20976;SDS011;10647;51.016;3.720;2023-03-11T02:02:07;19.37;;;4.00;;
20976;SDS011;10647;51.016;3.720;2023-03-11T02:04:37;18.57;;;3.47;;
20976;SDS011;10647;51.016;3.720;2023-03-11T02:07:06;14.37;;;4.20;;
20976;SDS011;10647;51.016;3.720;2023-03-11T02:09:35;13.10;;;3.77;;
20976;SDS011;10647;51.016;3.720;2023-03-11T02:12:03;8.47;;;3.47;;
20976;SDS011;10647;51.016;3.720;2023-03-11T02:14:33;16.13;;;3.10;;
20976;SDS011;10647;51.016;3.720;2023-03-11T02:17:03;13.13;;;3.20;;
20976;SDS011;10647;51.016;3.720;2023-03-11T02:22:14;11.30;;;3.07;;
20976;SDS011;10647;51.016;3.720;2023-03-11T02:24:44;14.37;;;3.50;;
20976;SDS011;10647;51.016;3.720;2023-03-11T02:27:45;17.23;;;3.10;;
20976;SDS011;10647;51.016;3.720;2023-03-11T02:30:15;11.17;;;2.70;;
20976;SDS011;10647;51.016;3.720;2023-03-11T02:32:43;16.33;;;2.77;;
20976;SDS011;10647;51.016;3.720;2023-03-11T02:35:13;13.97;;;2.83;;
20976;SDS011;10647;51.016;3.720;2023-03-11T02:37:43;17.07;;;3.53;;
20976;SDS011;10647;51.016;3.720;2023-03-11T02:42:53;18.37;;;3.20;;
20976;SDS011;10647;51.016;3.720;2023-03-11T02:45:23;15.97;;;3.10;;
20976;SDS011;10647;51.016;3.720;2023-03-11T02:47:53;14.40;;;3.87;;
20976;SDS011;10647;51.016;3.720;2023-03-11T02:50:23;13.00;;;3.00;;
20976;SDS011;10647;51.016;3.720;2023-03-11T02:52:51;13.57;;;3.47;;
20976;SDS011;10647;51.016;3.720;2023-03-11T02:55:20;15.83;;;3.30;;
20976;SDS011;10647;51.016;3.720;2023-03-11T02:57:47;13.77;;;3.63;;
20976;SDS011;10647;51.016;3.720;2023-03-11T03:00:15;14.30;;;4.00;;
20976;SDS011;10647;51.016;3.720;2023-03-11T03:02:44;19.70;;;4.07;;
20976;SDS011;10647;51.016;3.720;2023-03-11T03:05:14;14.87;;;4.13;;
20976;SDS011;10647;51.016;3.720;2023-03-11T03:07:41;19.67;;;4.33;;
20976;SDS011;10647;51.016;3.720;2023-03-11T03:10:10;15.10;;;4.87;;
20976;SDS011;10647;51.016;3.720;2023-03-11T03:12:41;18.40;;;5.40;;
20976;SDS011;10647;51.016;3.720;2023-03-11T03:15:09;18.27;;;5.80;;
20976;SDS011;10647;51.016;3.720;2023-03-11T03:17:37;17.37;;;4.97;;
20976;SDS011;10647;51.016;3.720;2023-03-11T03:20:05;20.50;;;5.67;;
20976;SDS011;10647;51.016;3.720;2023-03-11T03:25:07;22.73;;;5.83;;
20976;SDS011;10647;51.016;3.720;2023-03-11T03:27:36;26.97;;;6.17;;
20976;SDS011;10647;51.016;3.720;2023-03-11T03:30:04;23.37;;;6.97;;
20976;SDS011;10647;51.016;3.720;2023-03-11T03:32:34;19.37;;;5.27;;
20976;SDS011;10647;51.016;3.720;2023-03-11T03:35:02;19.93;;;6.00;;
20976;SDS011;10647;51.016;3.720;2023-03-11T03:40:17;19.80;;;5.67;;
20976;SDS011;10647;51.016;3.720;2023-03-11T03:42:45;22.53;;;6.00;;
20976;SDS011;10647;51.016;3.720;2023-03-11T03:45:12;23.17;;;6.17;;
20976;SDS011;10647;51.016;3.720;2023-03-11T03:47:42;23.13;;;6.07;;
20976;SDS011;10647;51.016;3.720;2023-03-11T03:50:10;22.57;;;6.70;;
20976;SDS011;10647;51.016;3.720;2023-03-11T03:52:41;25.00;;;6.00;;
20976;SDS011;10647;51.016;3.720;2023-03-11T03:55:10;22.67;;;6.27;;
20976;SDS011;10647;51.016;3.720;2023-03-11T03:57:38;20.60;;;6.10;;
20976;SDS011;10647;51.016;3.720;2023-03-11T04:00:06;24.83;;;6.60;;
20976;SDS011;10647;51.016;3.720;2023-03-11T04:02:34;22.73;;;6.83;;
20976;SDS011;10647;51.016;3.720;2023-03-11T04:05:01;22.90;;;6.47;;
20976;SDS011;10647;51.016;3.720;2023-03-11T04:07:29;29.63;;;6.63;;
20976;SDS011;10647;51.016;3.720;2023-03-11T04:10:05;31.43;;;7.40;;
20976;SDS011;10647;51.016;3.720;2023-03-11T04:12:34;30.23;;;7.83;;
20976;SDS011;10647;51.016;3.720;2023-03-11T04:15:03;24.53;;;7.00;;
20976;SDS011;10647;51.016;3.720;2023-03-11T04:17:31;21.90;;;7.33;;
20976;SDS011;10647;51.016;3.720;2023-03-11T04:19:59;31.30;;;7.93;;
20976;SDS011;10647;51.016;3.720;2023-03-11T04:22:27;26.60;;;9.03;;
20976;SDS011;10647;51.016;3.720;2023-03-11T04:24:54;24.37;;;8.80;;
20976;SDS011;10647;51.016;3.720;2023-03-11T04:27:27;28.90;;;9.27;;
20976;SDS011;10647;51.016;3.720;2023-03-11T04:29:55;31.60;;;9.53;;
20976;SDS011;10647;51.016;3.720;2023-03-11T04:35:09;30.53;;;10.30;;
20976;SDS011;10647;51.016;3.720;2023-03-11T04:37:38;28.37;;;9.53;;
20976;SDS011;10647;51.016;3.720;2023-03-11T04:40:07;36.37;;;9.90;;
20976;SDS011;10647;51.016;3.720;2023-03-11T04:42:56;26.47;;;9.80;;
20976;SDS011;10647;51.016;3.720;2023-03-11T04:45:29;27.50;;;10.03;;
20976;SDS011;10647;51.016;3.720;2023-03-11T04:48:02;31.90;;;11.20;;
20976;SDS011;10647;51.016;3.720;2023-03-11T04:50:32;35.07;;;11.63;;
20976;SDS011;10647;51.016;3.720;2023-03-11T04:52:59;29.57;;;11.30;;
20976;SDS011;10647;51.016;3.720;2023-03-11T04:55:28;34.33;;;11.13;;
20976;SDS011;10647;51.016;3.720;2023-03-11T04:57:55;28.70;;;10.83;;
20976;SDS011;10647;51.016;3.720;2023-03-11T05:00:23;30.13;;;10.87;;
20976;SDS011;10647;51.016;3.720;2023-03-11T05:02:50;31.17;;;11.00;;
20976;SDS011;10647;51.016;3.720;2023-03-11T05:05:18;36.53;;;10.67;;
20976;SDS011;10647;51.016;3.720;2023-03-11T05:07:46;29.73;;;9.90;;
20976;SDS011;10647;51.016;3.720;2023-03-11T05:10:14;32.50;;;10.30;;
20976;SDS011;10647;51.016;3.720;2023-03-11T05:12:46;30.50;;;10.50;;
20976;SDS011;10647;51.016;3.720;2023-03-11T05:15:15;29.07;;;10.20;;
20976;SDS011;10647;51.016;3.720;2023-03-11T05:17:43;29.27;;;10.60;;
20976;SDS011;10647;51.016;3.720;2023-03-11T05:20:11;30.77;;;10.57;;
20976;SDS011;10647;51.016;3.720;2023-03-11T05:22:44;35.00;;;12.23;;
20976;SDS011;10647;51.016;3.720;2023-03-11T05:25:12;37.23;;;12.13;;
20976;SDS011;10647;51.016;3.720;2023-03-11T05:30:10;29.70;;;11.57;;
20976;SDS011;10647;51.016;3.720;2023-03-11T05:32:41;36.33;;;12.67;;
20976;SDS011;10647;51.016;3.720;2023-03-11T05:35:14;32.10;;;11.37;;
20976;SDS011;10647;51.016;3.720;2023-03-11T05:40:14;36.63;;;11.60;;
20976;SDS011;10647;51.016;3.720;2023-03-11T05:42:42;36.43;;;11.40;;
20976;SDS011;10647;51.016;3.720;2023-03-11T05:45:09;33.80;;;11.07;;
20976;SDS011;10647;51.016;3.720;2023-03-11T05:47:43;30.70;;;11.57;;
20976;SDS011;10647;51.016;3.720;2023-03-11T05:50:10;35.23;;;11.83;;
20976;SDS011;10647;51.016;3.720;2023-03-11T05:52:45;30.60;;;11.37;;
20976;SDS011;10647;51.016;3.720;2023-03-11T05:55:13;31.37;;;11.43;;
20976;SDS011;10647;51.016;3.720;2023-03-11T05:57:40;27.73;;;11.93;;
20976;SDS011;10647;51.016;3.720;2023-03-11T06:00:09;32.93;;;12.00;;
20976;SDS011;10647;51.016;3.720;2023-03-11T06:02:40;35.13;;;11.80;;
20976;SDS011;10647;51.016;3.720;2023-03-11T06:05:25;30.47;;;10.97;;
20976;SDS011;10647;51.016;3.720;2023-03-11T06:07:53;31.43;;;11.87;;
20976;SDS011;10647;51.016;3.720;2023-03-11T06:10:20;33.37;;;12.13;;
20976;SDS011;10647;51.016;3.720;2023-03-11T06:12:48;28.80;;;12.33;;
20976;SDS011;10647;51.016;3.720;2023-03-11T06:17:46;42.23;;;15.63;;
20976;SDS011;10647;51.016;3.720;2023-03-11T06:20:13;44.07;;;15.30;;
20976;SDS011;10647;51.016;3.720;2023-03-11T06:22:41;37.10;;;14.43;;
20976;SDS011;10647;51.016;3.720;2023-03-11T06:27:56;35.20;;;13.73;;
20976;SDS011;10647;51.016;3.720;2023-03-11T06:30:24;50.30;;;14.50;;
20976;SDS011;10647;51.016;3.720;2023-03-11T06:32:51;41.67;;;14.77;;
20976;SDS011;10647;51.016;3.720;2023-03-11T06:38:08;39.17;;;14.53;;
20976;SDS011;10647;51.016;3.720;2023-03-11T06:40:42;42.13;;;14.03;;
20976;SDS011;10647;51.016;3.720;2023-03-11T06:43:16;33.90;;;13.60;;
20976;SDS011;10647;51.016;3.720;2023-03-11T06:45:44;31.63;;;13.13;;
20976;SDS011;10647;51.016;3.720;2023-03-11T06:50:59;31.30;;;13.47;;
20976;SDS011;10647;51.016;3.720;2023-03-11T06:53:29;33.77;;;14.43;;
20976;SDS011;10647;51.016;3.720;2023-03-11T06:55:57;40.13;;;15.20;;
20976;SDS011;10647;51.016;3.720;2023-03-11T06:58:28;40.40;;;16.80;;
20976;SDS011;10647;51.016;3.720;2023-03-11T07:01:20;36.13;;;15.87;;
20976;SDS011;10647;51.016;3.720;2023-03-11T07:04:08;41.07;;;15.77;;
20976;SDS011;10647;51.016;3.720;2023-03-11T07:06:40;37.90;;;15.43;;
20976;SDS011;10647;51.016;3.720;2023-03-11T07:09:12;40.80;;;14.77;;
20976;SDS011;10647;51.016;3.720;2023-03-11T07:11:39;35.33;;;14.90;;
20976;SDS011;10647;51.016;3.720;2023-03-11T07:14:07;37.50;;;14.73;;
20976;SDS011;10647;51.016;3.720;2023-03-11T07:16:36;32.67;;;14.17;;
20976;SDS011;10647;51.016;3.720;2023-03-11T07:19:05;41.07;;;15.23;;
20976;SDS011;10647;51.016;3.720;2023-03-11T07:21:34;41.00;;;14.00;;
20976;SDS011;10647;51.016;3.720;2023-03-11T07:24:03;39.47;;;14.27;;
20976;SDS011;10647;51.016;3.720;2023-03-11T07:26:32;40.03;;;15.07;;
20976;SDS011;10647;51.016;3.720;2023-03-11T07:29:00;35.17;;;15.30;;
20976;SDS011;10647;51.016;3.720;2023-03-11T07:31:29;31.80;;;14.37;;
20976;SDS011;10647;51.016;3.720;2023-03-11T07:34:16;37.37;;;15.20;;
20976;SDS011;10647;51.016;3.720;2023-03-11T07:36:44;43.87;;;15.30;;
20976;SDS011;10647;51.016;3.720;2023-03-11T07:39:14;41.17;;;16.83;;
20976;SDS011;10647;51.016;3.720;2023-03-11T07:41:43;41.87;;;16.33;;
20976;SDS011;10647;51.016;3.720;2023-03-11T07:44:11;37.53;;;15.23;;
20976;SDS011;10647;51.016;3.720;2023-03-11T07:46:40;34.97;;;15.10;;
20976;SDS011;10647;51.016;3.720;2023-03-11T07:49:08;39.20;;;15.83;;
20976;SDS011;10647;51.016;3.720;2023-03-11T07:51:36;38.50;;;15.83;;
20976;SDS011;10647;51.016;3.720;2023-03-11T07:56:53;36.63;;;15.03;;
20976;SDS011;10647;51.016;3.720;2023-03-11T07:59:21;39.10;;;14.90;;
20976;SDS011;10647;51.016;3.720;2023-03-11T08:01:54;33.63;;;12.30;;
20976;SDS011;10647;51.016;3.720;2023-03-11T08:04:22;37.00;;;14.63;;
20976;SDS011;10647;51.016;3.720;2023-03-11T08:06:50;24.20;;;12.23;;
20976;SDS011;10647;51.016;3.720;2023-03-11T08:09:17;34.77;;;12.37;;
20976;SDS011;10647;51.016;3.720;2023-03-11T08:11:45;32.83;;;13.33;;
20976;SDS011;10647;51.016;3.720;2023-03-11T08:14:13;39.83;;;13.87;;
20976;SDS011;10647;51.016;3.720;2023-03-11T08:16:40;28.67;;;13.67;;
20976;SDS011;10647;51.016;3.720;2023-03-11T08:21:41;30.73;;;13.20;;
20976;SDS011;10647;51.016;3.720;2023-03-11T08:24:10;31.17;;;12.23;;
20976;SDS011;10647;51.016;3.720;2023-03-11T08:26:39;30.00;;;12.37;;
20976;SDS011;10647;51.016;3.720;2023-03-11T08:29:07;31.30;;;11.27;;
20976;SDS011;10647;51.016;3.720;2023-03-11T08:31:37;38.10;;;13.33;;
20976;SDS011;10647;51.016;3.720;2023-03-11T08:34:20;28.63;;;13.20;;
20976;SDS011;10647;51.016;3.720;2023-03-11T08:36:48;31.17;;;13.53;;
20976;SDS011;10647;51.016;3.720;2023-03-11T08:39:15;24.57;;;13.00;;
20976;SDS011;10647;51.016;3.720;2023-03-11T08:41:44;29.57;;;11.93;;
20976;SDS011;10647;51.016;3.720;2023-03-11T08:44:11;32.50;;;14.00;;
20976;SDS011;10647;51.016;3.720;2023-03-11T08:46:39;29.10;;;13.23;;
20976;SDS011;10647;51.016;3.720;2023-03-11T08:49:06;33.93;;;13.43;;
20976;SDS011;10647;51.016;3.720;2023-03-11T08:51:34;29.60;;;13.13;;
20976;SDS011;10647;51.016;3.720;2023-03-11T08:54:02;29.77;;;12.93;;
20976;SDS011;10647;51.016;3.720;2023-03-11T08:56:30;30.07;;;12.33;;
20976;SDS011;10647;51.016;3.720;2023-03-11T08:58:58;26.90;;;9.73;;
20976;SDS011;10647;51.016;3.720;2023-03-11T09:01:26;28.80;;;11.33;;
20976;SDS011;10647;51.016;3.720;2023-03-11T09:03:54;24.03;;;9.97;;
20976;SDS011;10647;51.016;3.720;2023-03-11T09:06:22;28.57;;;10.83;;
20976;SDS011;10647;51.016;3.720;2023-03-11T09:08:50;23.03;;;10.70;;
20976;SDS011;10647;51.016;3.720;2023-03-11T09:11:19;26.07;;;10.83;;
20976;SDS011;10647;51.016;3.720;2023-03-11T09:16:33;25.93;;;10.17;;
20976;SDS011;10647;51.016;3.720;2023-03-11T09:19:01;25.83;;;10.03;;
20976;SDS011;10647;51.016;3.720;2023-03-11T09:21:30;25.23;;;10.40;;
20976;SDS011;10647;51.016;3.720;2023-03-11T09:23:59;23.07;;;10.30;;
20976;SDS011;10647;51.016;3.720;2023-03-11T09:26:28;17.07;;;9.60;;
20976;SDS011;10647;51.016;3.720;2023-03-11T09:28:57;25.27;;;8.90;;
20976;SDS011;10647;51.016;3.720;2023-03-11T09:31:24;20.23;;;6.57;;
20976;SDS011;10647;51.016;3.720;2023-03-11T09:33:55;17.77;;;7.20;;
20976;SDS011;10647;51.016;3.720;2023-03-11T09:36:23;16.80;;;6.63;;
20976;SDS011;10647;51.016;3.720;2023-03-11T09:38:50;13.93;;;4.43;;
20976;SDS011;10647;51.016;3.720;2023-03-11T09:41:36;20.43;;;4.70;;
20976;SDS011;10647;51.016;3.720;2023-03-11T09:52:49;17.10;;;4.67;;
20976;SDS011;10647;51.016;3.720;2023-03-11T09:58:11;10.37;;;1.50;;
20976;SDS011;10647;51.016;3.720;2023-03-11T10:00:57;10.50;;;2.13;;
20976;SDS011;10647;51.016;3.720;2023-03-11T10:03:28;17.40;;;2.93;;
20976;SDS011;10647;51.016;3.720;2023-03-11T10:06:00;9.90;;;2.70;;
20976;SDS011;10647;51.016;3.720;2023-03-11T10:11:09;8.93;;;1.60;;
20976;SDS011;10647;51.016;3.720;2023-03-11T10:13:44;9.30;;;1.30;;
20976;SDS011;10647;51.016;3.720;2023-03-11T10:16:24;9.53;;;1.40;;
20976;SDS011;10647;51.016;3.720;2023-03-11T10:19:01;11.87;;;1.30;;
20976;SDS011;10647;51.016;3.720;2023-03-11T10:21:46;12.70;;;1.80;;
20976;SDS011;10647;51.016;3.720;2023-03-11T10:24:18;8.87;;;1.77;;
20976;SDS011;10647;51.016;3.720;2023-03-11T10:26:47;11.97;;;2.20;;
20976;SDS011;10647;51.016;3.720;2023-03-11T10:35:15;10.73;;;2.90;;
20976;SDS011;10647;51.016;3.720;2023-03-11T10:37:50;5.47;;;2.40;;
20976;SDS011;10647;51.016;3.720;2023-03-11T10:43:00;13.10;;;2.40;;
20976;SDS011;10647;51.016;3.720;2023-03-11T10:45:36;11.63;;;2.73;;
20976;SDS011;10647;51.016;3.720;2023-03-11T10:48:11;17.97;;;2.47;;
20976;SDS011;10647;51.016;3.720;2023-03-11T10:50:43;11.00;;;2.03;;
20976;SDS011;10647;51.016;3.720;2023-03-11T10:53:23;12.20;;;2.67;;
20976;SDS011;10647;51.016;3.720;2023-03-11T10:55:52;10.07;;;2.60;;
20976;SDS011;10647;51.016;3.720;2023-03-11T10:58:21;6.97;;;2.13;;
20976;SDS011;10647;51.016;3.720;2023-03-11T11:03:43;9.00;;;2.07;;
20976;SDS011;10647;51.016;3.720;2023-03-11T11:09:20;18.73;;;2.10;;
20976;SDS011;10647;51.016;3.720;2023-03-11T11:12:06;6.60;;;1.47;;
20976;SDS011;10647;51.016;3.720;2023-03-11T11:14:53;8.93;;;1.53;;
20976;SDS011;10647;51.016;3.720;2023-03-11T11:19:50;6.83;;;1.93;;
20976;SDS011;10647;51.016;3.720;2023-03-11T11:22:48;10.67;;;1.70;;
20976;SDS011;10647;51.016;3.720;2023-03-11T11:25:25;6.30;;;1.43;;
20976;SDS011;10647;51.016;3.720;2023-03-11T11:28:02;7.50;;;1.50;;
20976;SDS011;10647;51.016;3.720;2023-03-11T11:30:31;15.07;;;1.87;;
20976;SDS011;10647;51.016;3.720;2023-03-11T11:33:15;10.73;;;1.90;;
20976;SDS011;10647;51.016;3.720;2023-03-11T11:35:29;13.30;;;2.80;;
20976;SDS011;10647;51.016;3.720;2023-03-11T11:38:01;16.47;;;4.97;;
20976;SDS011;10647;51.016;3.720;2023-03-11T11:40:31;9.80;;;1.57;;
20976;SDS011;10647;51.016;3.720;2023-03-11T11:43:04;5.77;;;1.60;;
20976;SDS011;10647;51.016;3.720;2023-03-11T11:45:35;9.73;;;1.70;;
20976;SDS011;10647;51.016;3.720;2023-03-11T11:48:38;7.80;;;1.40;;
20976;SDS011;10647;51.016;3.720;2023-03-11T11:51:15;8.83;;;1.67;;
20976;SDS011;10647;51.016;3.720;2023-03-11T11:53:41;6.90;;;1.70;;
20976;SDS011;10647;51.016;3.720;2023-03-11T11:56:12;13.40;;;1.70;;
20976;SDS011;10647;51.016;3.720;2023-03-11T11:58:41;6.00;;;1.43;;
20976;SDS011;10647;51.016;3.720;2023-03-11T12:01:15;9.03;;;1.60;;
20976;SDS011;10647;51.016;3.720;2023-03-11T12:04:12;8.47;;;1.30;;
20976;SDS011;10647;51.016;3.720;2023-03-11T12:18:45;8.60;;;1.30;;
20976;SDS011;10647;51.016;3.720;2023-03-11T12:21:40;4.33;;;1.23;;
20976;SDS011;10647;51.016;3.720;2023-03-11T12:27:43;11.57;;;1.10;;
20976;SDS011;10647;51.016;3.720;2023-03-11T12:30:32;7.77;;;1.40;;
20976;SDS011;10647;51.016;3.720;2023-03-11T12:33:10;4.20;;;1.00;;
20976;SDS011;10647;51.016;3.720;2023-03-11T12:35:33;4.63;;;1.10;;
20976;SDS011;10647;51.016;3.720;2023-03-11T12:43:59;7.60;;;1.37;;
20976;SDS011;10647;51.016;3.720;2023-03-11T12:47:02;13.10;;;1.17;;
20976;SDS011;10647;51.016;3.720;2023-03-11T12:49:22;5.30;;;1.10;;
20976;SDS011;10647;51.016;3.720;2023-03-11T12:54:41;4.23;;;1.07;;
20976;SDS011;10647;51.016;3.720;2023-03-11T12:57:30;9.03;;;1.13;;
20976;SDS011;10647;51.016;3.720;2023-03-11T13:00:13;10.90;;;1.13;;
20976;SDS011;10647;51.016;3.720;2023-03-11T13:03:31;9.53;;;1.10;;
20976;SDS011;10647;51.016;3.720;2023-03-11T13:08:43;21.80;;;1.83;;
20976;SDS011;10647;51.016;3.720;2023-03-11T13:11:25;8.50;;;1.17;;
20976;SDS011;10647;51.016;3.720;2023-03-11T13:14:27;7.30;;;1.10;;
20976;SDS011;10647;51.016;3.720;2023-03-11T13:17:24;4.27;;;1.20;;
20976;SDS011;10647;51.016;3.720;2023-03-11T13:19:55;5.63;;;1.43;;
20976;SDS011;10647;51.016;3.720;2023-03-11T13:25:31;8.57;;;1.80;;
20976;SDS011;10647;51.016;3.720;2023-03-11T13:28:18;6.53;;;1.43;;
20976;SDS011;10647;51.016;3.720;2023-03-11T13:30:57;9.07;;;1.60;;
20976;SDS011;10647;51.016;3.720;2023-03-11T13:33:47;5.00;;;1.53;;
20976;SDS011;10647;51.016;3.720;2023-03-11T13:39:04;5.70;;;1.63;;
20976;SDS011;10647;51.016;3.720;2023-03-11T13:41:35;6.95;;;2.00;;
20976;SDS011;10647;51.016;3.720;2023-03-11T13:44:12;10.05;;;1.92;;
20976;SDS011;10647;51.016;3.720;2023-03-11T13:46:48;6.53;;;1.52;;
20976;SDS011;10647;51.016;3.720;2023-03-11T13:49:31;5.53;;;1.72;;
20976;SDS011;10647;51.016;3.720;2023-03-11T13:52:00;7.45;;;1.67;;
20976;SDS011;10647;51.016;3.720;2023-03-11T13:54:41;6.95;;;1.52;;
20976;SDS011;10647;51.016;3.720;2023-03-11T13:57:20;4.97;;;1.40;;
20976;SDS011;10647;51.016;3.720;2023-03-11T13:59:54;8.78;;;1.70;;
20976;SDS011;10647;51.016;3.720;2023-03-11T14:02:24;8.83;;;2.00;;
20976;SDS011;10647;51.016;3.720;2023-03-11T14:04:54;7.50;;;1.65;;
20976;SDS011;10647;51.016;3.720;2023-03-11T14:07:24;8.38;;;1.47;;
20976;SDS011;10647;51.016;3.720;2023-03-11T14:10:20;5.80;;;1.57;;
20976;SDS011;10647;51.016;3.720;2023-03-11T14:12:49;9.23;;;1.77;;
20976;SDS011;10647;51.016;3.720;2023-03-11T14:17:49;5.20;;;1.85;;
20976;SDS011;10647;51.016;3.720;2023-03-11T14:20:19;7.75;;;1.72;;
20976;SDS011;10647;51.016;3.720;2023-03-11T14:22:53;7.37;;;1.60;;
20976;SDS011;10647;51.016;3.720;2023-03-11T14:25:27;13.30;;;1.98;;
20976;SDS011;10647;51.016;3.720;2023-03-11T14:30:32;6.20;;;1.82;;
20976;SDS011;10647;51.016;3.720;2023-03-11T14:35:29;9.48;;;1.47;;
20976;SDS011;10647;51.016;3.720;2023-03-11T14:37:58;11.57;;;1.95;;
20976;SDS011;10647;51.016;3.720;2023-03-11T14:40:30;4.53;;;1.87;;
20976;SDS011;10647;51.016;3.720;2023-03-11T14:43:00;8.15;;;1.85;;
20976;SDS011;10647;51.016;3.720;2023-03-11T14:45:37;6.58;;;1.60;;
20976;SDS011;10647;51.016;3.720;2023-03-11T14:50:40;6.30;;;1.70;;
20976;SDS011;10647;51.016;3.720;2023-03-11T14:53:14;9.00;;;1.40;;
20976;SDS011;10647;51.016;3.720;2023-03-11T14:55:47;6.13;;;1.60;;
20976;SDS011;10647;51.016;3.720;2023-03-11T14:58:19;3.43;;;1.50;;
20976;SDS011;10647;51.016;3.720;2023-03-11T15:03:51;8.80;;;1.77;;
20976;SDS011;10647;51.016;3.720;2023-03-11T15:06:27;6.17;;;1.40;;
20976;SDS011;10647;51.016;3.720;2023-03-11T15:09:05;5.00;;;1.17;;
20976;SDS011;10647;51.016;3.720;2023-03-11T15:11:48;6.67;;;2.08;;
20976;SDS011;10647;51.016;3.720;2023-03-11T15:19:45;5.50;;;1.30;;
20976;SDS011;10647;51.016;3.720;2023-03-11T15:22:23;4.83;;;1.47;;
20976;SDS011;10647;51.016;3.720;2023-03-11T15:24:54;6.37;;;1.57;;
20976;SDS011;10647;51.016;3.720;2023-03-11T15:27:30;5.28;;;1.30;;
20976;SDS011;10647;51.016;3.720;2023-03-11T15:30:00;6.22;;;1.60;;
20976;SDS011;10647;51.016;3.720;2023-03-11T15:37:37;5.55;;;1.27;;
20976;SDS011;10647;51.016;3.720;2023-03-11T15:40:23;8.33;;;1.85;;
20976;SDS011;10647;51.016;3.720;2023-03-11T15:45:42;10.53;;;1.12;;
20976;SDS011;10647;51.016;3.720;2023-03-11T15:48:10;6.07;;;1.40;;
20976;SDS011;10647;51.016;3.720;2023-03-11T15:50:52;3.70;;;1.20;;
20976;SDS011;10647;51.016;3.720;2023-03-11T15:53:20;3.87;;;1.00;;
20976;SDS011;10647;51.016;3.720;2023-03-11T15:55:48;4.40;;;1.27;;
20976;SDS011;10647;51.016;3.720;2023-03-11T15:58:17;7.73;;;1.20;;
20976;SDS011;10647;51.016;3.720;2023-03-11T16:00:47;5.07;;;1.03;;
20976;SDS011;10647;51.016;3.720;2023-03-11T16:03:19;5.90;;;1.10;;
20976;SDS011;10647;51.016;3.720;2023-03-11T16:05:46;13.97;;;1.67;;
20976;SDS011;10647;51.016;3.720;2023-03-11T16:08:14;5.80;;;1.37;;
20976;SDS011;10647;51.016;3.720;2023-03-11T16:10:42;3.17;;;0.90;;
20976;SDS011;10647;51.016;3.720;2023-03-11T16:13:13;6.77;;;1.10;;
20976;SDS011;10647;51.016;3.720;2023-03-11T16:18:44;9.90;;;2.00;;
20976;SDS011;10647;51.016;3.720;2023-03-11T16:21:19;5.20;;;1.47;;
20976;SDS011;10647;51.016;3.720;2023-03-11T16:26:19;5.37;;;1.60;;
20976;SDS011;10647;51.016;3.720;2023-03-11T16:28:50;7.20;;;1.40;;
20976;SDS011;10647;51.016;3.720;2023-03-11T16:34:04;7.83;;;1.60;;
20976;SDS011;10647;51.016;3.720;2023-03-11T16:36:32;11.20;;;2.10;;
20976;SDS011;10647;51.016;3.720;2023-03-11T16:39:00;9.50;;;1.77;;
20976;SDS011;10647;51.016;3.720;2023-03-11T16:41:27;4.97;;;1.03;;
20976;SDS011;10647;51.016;3.720;2023-03-11T16:43:57;8.50;;;1.70;;
20976;SDS011;10647;51.016;3.720;2023-03-11T16:46:24;6.90;;;1.47;;
20976;SDS011;10647;51.016;3.720;2023-03-11T16:48:52;9.77;;;1.70;;
20976;SDS011;10647;51.016;3.720;2023-03-11T16:51:20;8.93;;;1.80;;
20976;SDS011;10647;51.016;3.720;2023-03-11T16:53:47;12.87;;;1.67;;
20976;SDS011;10647;51.016;3.720;2023-03-11T16:56:15;6.70;;;1.40;;
20976;SDS011;10647;51.016;3.720;2023-03-11T16:58:44;6.80;;;1.40;;
20976;SDS011;10647;51.016;3.720;2023-03-11T17:01:13;8.63;;;1.33;;
20976;SDS011;10647;51.016;3.720;2023-03-11T17:03:43;10.33;;;1.57;;
20976;SDS011;10647;51.016;3.720;2023-03-11T17:06:12;12.63;;;1.50;;
20976;SDS011;10647;51.016;3.720;2023-03-11T17:08:40;9.40;;;1.70;;
20976;SDS011;10647;51.016;3.720;2023-03-11T17:11:19;7.60;;;1.97;;
20976;SDS011;10647;51.016;3.720;2023-03-11T17:13:42;8.97;;;1.67;;
20976;SDS011;10647;51.016;3.720;2023-03-11T17:16:10;18.17;;;2.43;;
20976;SDS011;10647;51.016;3.720;2023-03-11T17:18:38;6.13;;;1.50;;
20976;SDS011;10647;51.016;3.720;2023-03-11T17:21:06;7.47;;;1.63;;
20976;SDS011;10647;51.016;3.720;2023-03-11T17:23:39;15.27;;;1.70;;
20976;SDS011;10647;51.016;3.720;2023-03-11T17:26:08;9.07;;;1.60;;
20976;SDS011;10647;51.016;3.720;2023-03-11T17:28:37;9.33;;;1.50;;
20976;SDS011;10647;51.016;3.720;2023-03-11T17:31:14;8.33;;;1.70;;